Arnold, Kansas
Current Conditions -  °F | °C
As of 6:55 AM on Saturday 25 Oct 2014 (Local Time) from KHYS Reporting Station
Clear Clear  
Wind Chill: 44°   Ceiling: Unl
Heat Index: 46°   Visibility: 10mi
Dew Point: 41°   Wind: 5mph
Humidity: 81%   Direction: 280°W
Pressure: 30.05"   Gusts: NA
Location:  38.64°N, 100.05°W
Report Text: KHYS 251155Z AUTO 28004KT 10SM CLR 08/05 A3005 RMK AO1 10160 20080 52003
Loading
Personal Weather Stations






























Interactive Weather Map New forecast layout! Learn more

10-Day Weather Forecast

Advertisements
Track Severe Weather on mobile